Russellville, Tennessee
Current Conditions -  °F | °C
As of 3:35 AM on Friday 28 Nov 2014 (Local Time) from KMOR Reporting Station
Overcast Overcast  
Wind Chill: 25°   Ceiling: 3600
Heat Index: 30°   Visibility: 10mi
Dew Point: 21°   Wind: 5mph
Humidity: 69%   Direction: 360°N
Pressure: 30.37"   Gusts: NA
Location:  36.26°N, 83.19°W
Report Text: KMOR 280835Z AUTO 36004KT 10SM FEW026 OVC036 M01/M06 A3037 RMK
Loading
Personal Weather Stations






























Interactive Weather Map New forecast layout! Learn more

10-Day Weather Forecast

Advertisements
Track Severe Weather on mobile